Time;durP1;ratioP1;P1;durP2;ratioP2;P2;SDS_P1;SDS_P2;PMS_P1;PMS_P2;Temp;Humidity;BMP_temperature;BMP_pressure;BME280_temperature;BME280_humidity;BME280_pressure;Samples;Min_cycle;Max_cycle;Signal;HPM_P1;HPM_P2
2023/05/30 00:01:52;;;;;;;9.00;4.65;;;;;;;;;;5028403;28;20046;-74
2023/05/30 00:04:21;;;;;;;9.90;4.47;;;;;;;;;;5029014;28;20045;-74
2023/05/30 00:06:47;;;;;;;11.27;4.55;;;;;;;;;;5019139;28;20099;-74
2023/05/30 00:09:13;;;;;;;9.60;3.95;;;;;;;;;;5011511;28;20061;-74
2023/05/30 00:11:39;;;;;;;10.88;4.03;;;;;;;;;;5016947;28;20085;-75
2023/05/30 00:14:06;;;;;;;5.32;3.95;;;;;;;;;;5033292;28;20049;-74
2023/05/30 00:16:34;;;;;;;9.77;3.80;;;;;;;;;;5046274;28;20048;-74
2023/05/30 00:19:00;;;;;;;12.85;4.85;;;;;;;;;;5019775;28;20053;-74
2023/05/30 00:21:27;;;;;;;10.48;4.18;;;;;;;;;;5033249;28;20049;-74
2023/05/30 00:23:53;;;;;;;9.82;4.40;;;;;;;;;;5034997;28;20057;-74
2023/05/30 00:26:19;;;;;;;9.73;4.63;;;;;;;;;;5045089;28;20041;-74
2023/05/30 00:28:45;;;;;;;8.52;3.72;;;;;;;;;;5023603;28;20076;-75
2023/05/30 00:31:11;;;;;;;11.88;4.30;;;;;;;;;;5016692;28;20045;-74
2023/05/30 00:33:37;;;;;;;10.80;4.15;;;;;;;;;;5017549;28;20519;-75
2023/05/30 00:36:03;;;;;;;5.28;3.40;;;;;;;;;;5036342;28;20076;-74
2023/05/30 00:38:29;;;;;;;10.70;4.22;;;;;;;;;;5030804;28;20065;-74
2023/05/30 00:40:55;;;;;;;12.43;3.95;;;;;;;;;;5016475;28;20380;-74
2023/05/30 00:43:22;;;;;;;8.15;4.40;;;;;;;;;;5029659;28;20041;-74
2023/05/30 00:45:50;;;;;;;11.05;4.35;;;;;;;;;;5034559;28;20045;-74
2023/05/30 00:48:16;;;;;;;11.77;4.72;;;;;;;;;;5019304;28;20050;-74
2023/05/30 00:50:42;;;;;;;12.02;4.88;;;;;;;;;;5035395;28;20049;-74
2023/05/30 00:53:09;;;;;;;12.15;4.60;;;;;;;;;;5035077;28;20125;-74
2023/05/30 00:55:35;;;;;;;7.57;4.50;;;;;;;;;;5035803;28;20049;-74
2023/05/30 00:58:01;;;;;;;10.15;4.40;;;;;;;;;;5034937;28;20073;-74
2023/05/30 01:00:27;;;;;;;6.72;3.85;;;;;;;;;;5023628;28;20045;-74
2023/05/30 01:02:59;;;;;;;12.02;4.20;;;;;;;;;;5017039;28;20096;-74
2023/05/30 01:05:26;;;;;;;9.90;4.53;;;;;;;;;;5032461;28;20483;-74
2023/05/30 01:07:52;;;;;;;15.38;4.68;;;;;;;;;;5022159;28;20079;-74
2023/05/30 01:10:18;;;;;;;9.48;4.38;;;;;;;;;;5034022;28;20049;-74
2023/05/30 01:12:47;;;;;;;8.52;3.90;;;;;;;;;;5034694;28;20053;-74
2023/05/30 01:15:15;;;;;;;9.48;4.30;;;;;;;;;;5018939;28;20551;-74
2023/05/30 01:17:44;;;;;;;9.18;4.90;;;;;;;;;;5029908;28;20045;-74
2023/05/30 01:20:14;;;;;;;11.95;4.50;;;;;;;;;;5031586;28;20487;-74
2023/05/30 01:22:44;;;;;;;11.52;5.20;;;;;;;;;;5019348;28;20052;-74
2023/05/30 01:25:29;;;;;;;8.90;4.35;;;;;;;;;;5035228;28;20046;-74
2023/05/30 01:28:14;;;;;;;11.32;4.55;;;;;;;;;;5016702;28;20038;-74
2023/05/30 01:30:45;;;;;;;11.50;4.45;;;;;;;;;;5015964;28;20050;-74
2023/05/30 01:33:12;;;;;;;11.23;4.32;;;;;;;;;;5034987;28;20049;-74
2023/05/30 01:35:38;;;;;;;12.93;4.15;;;;;;;;;;5052874;28;20051;-74
2023/05/30 01:38:04;;;;;;;13.15;4.35;;;;;;;;;;5027288;28;20117;-74
2023/05/30 01:40:30;;;;;;;14.18;4.75;;;;;;;;;;5025459;28;20045;-74
2023/05/30 01:42:58;;;;;;;11.02;4.90;;;;;;;;;;5035479;28;20045;-74
2023/05/30 01:45:31;;;;;;;9.88;4.10;;;;;;;;;;5034842;28;20411;-74
2023/05/30 01:48:02;;;;;;;14.63;4.78;;;;;;;;;;5033939;28;20077;-74
2023/05/30 01:50:41;;;;;;;9.63;4.25;;;;;;;;;;5015545;28;20041;-74
2023/05/30 01:53:10;;;;;;;10.10;4.10;;;;;;;;;;5033387;28;20052;-74
2023/05/30 01:55:38;;;;;;;13.20;4.40;;;;;;;;;;5033052;28;20041;-74
2023/05/30 01:58:04;;;;;;;13.88;4.35;;;;;;;;;;5018863;28;20041;-75
2023/05/30 02:00:31;;;;;;;10.90;4.13;;;;;;;;;;5017827;28;20096;-74
2023/05/30 02:02:57;;;;;;;14.23;4.95;;;;;;;;;;5028429;28;20438;-74
2023/05/30 02:05:23;;;;;;;12.32;4.78;;;;;;;;;;5025087;28;20038;-74
2023/05/30 02:07:49;;;;;;;12.95;4.93;;;;;;;;;;5034990;28;20049;-74
2023/05/30 02:10:15;;;;;;;12.32;4.82;;;;;;;;;;5019765;28;20054;-74
2023/05/30 02:12:41;;;;;;;9.85;4.63;;;;;;;;;;5015254;28;20111;-74
2023/05/30 02:15:07;;;;;;;12.70;4.63;;;;;;;;;;5034163;28;20045;-74
2023/05/30 02:17:33;;;;;;;10.55;4.60;;;;;;;;;;5032826;28;20049;-74
2023/05/30 02:20:00;;;;;;;17.73;5.25;;;;;;;;;;5018773;28;20042;-75
2023/05/30 02:22:26;;;;;;;10.57;4.65;;;;;;;;;;5018520;28;20101;-74
2023/05/30 02:24:52;;;;;;;10.77;4.53;;;;;;;;;;5016526;28;20143;-74
2023/05/30 02:27:19;;;;;;;10.30;4.57;;;;;;;;;;5021577;28;20042;-75
2023/05/30 02:29:45;;;;;;;13.70;5.40;;;;;;;;;;5022814;28;20112;-74
2023/05/30 02:32:11;;;;;;;12.55;4.72;;;;;;;;;;5014639;28;20041;-74
2023/05/30 02:34:37;;;;;;;10.52;4.43;;;;;;;;;;5023760;28;20483;-74
2023/05/30 02:37:03;;;;;;;13.30;4.80;;;;;;;;;;5028213;28;20050;-74
2023/05/30 02:39:29;;;;;;;11.45;4.45;;;;;;;;;;5014151;28;20399;-74
2023/05/30 02:41:55;;;;;;;11.23;4.97;;;;;;;;;;5014549;28;20050;-74
2023/05/30 02:44:21;;;;;;;10.10;4.65;;;;;;;;;;5014550;28;20060;-74
2023/05/30 02:46:47;;;;;;;11.35;4.45;;;;;;;;;;5017813;28;20041;-74
2023/05/30 02:49:13;;;;;;;9.90;4.30;;;;;;;;;;5011805;28;20084;-74
2023/05/30 02:51:41;;;;;;;11.43;4.25;;;;;;;;;;5033125;28;20049;-74
2023/05/30 02:54:07;;;;;;;11.38;4.22;;;;;;;;;;5033732;28;20049;-74
2023/05/30 02:56:33;;;;;;;15.73;4.68;;;;;;;;;;5023623;28;20511;-74
2023/05/30 02:58:59;;;;;;;11.75;4.82;;;;;;;;;;5027482;28;20044;-74
2023/05/30 03:01:25;;;;;;;10.13;3.88;;;;;;;;;;5033964;28;20048;-74
2023/05/30 03:03:51;;;;;;;12.52;4.50;;;;;;;;;;5031417;28;20049;-74
2023/05/30 03:06:18;;;;;;;9.18;4.05;;;;;;;;;;5015976;28;20431;-74
2023/05/30 03:08:44;;;;;;;11.13;3.90;;;;;;;;;;5030616;28;20100;-74
2023/05/30 03:11:11;;;;;;;10.40;4.10;;;;;;;;;;5013197;28;20065;-74
2023/05/30 03:13:37;;;;;;;18.35;4.57;;;;;;;;;;5024439;28;20045;-74
2023/05/30 03:16:03;;;;;;;11.18;4.72;;;;;;;;;;5031738;28;20088;-74
2023/05/30 03:18:29;;;;;;;10.60;3.90;;;;;;;;;;5028691;28;20052;-74
2023/05/30 03:20:56;;;;;;;11.45;4.45;;;;;;;;;;5038642;28;20460;-74
2023/05/30 03:23:22;;;;;;;11.05;4.82;;;;;;;;;;5014615;28;20108;-74
2023/05/30 03:25:48;;;;;;;15.23;4.50;;;;;;;;;;5013617;28;20128;-74
2023/05/30 03:28:14;;;;;;;8.35;4.45;;;;;;;;;;5013047;28;20044;-74
2023/05/30 03:30:40;;;;;;;13.15;4.40;;;;;;;;;;5027091;28;20448;-74
2023/05/30 03:33:06;;;;;;;11.90;5.07;;;;;;;;;;5034810;28;20049;-74
2023/05/30 03:35:32;;;;;;;11.68;4.72;;;;;;;;;;5019314;28;20088;-74
2023/05/30 03:37:58;;;;;;;13.95;5.18;;;;;;;;;;5032507;28;20095;-75
2023/05/30 03:40:24;;;;;;;13.23;4.95;;;;;;;;;;5023871;28;20121;-74
2023/05/30 03:42:50;;;;;;;10.13;4.32;;;;;;;;;;5044423;28;20045;-75
2023/05/30 03:45:16;;;;;;;10.52;3.97;;;;;;;;;;5053117;28;20467;-74
2023/05/30 03:47:42;;;;;;;10.20;4.65;;;;;;;;;;5052534;28;20491;-74
2023/05/30 03:50:08;;;;;;;12.68;5.00;;;;;;;;;;5050162;28;20048;-74
2023/05/30 03:52:34;;;;;;;13.73;4.97;;;;;;;;;;5048498;28;20585;-75
2023/05/30 03:55:00;;;;;;;15.90;6.28;;;;;;;;;;5020998;28;20124;-75
2023/05/30 03:57:26;;;;;;;12.52;4.45;;;;;;;;;;5021795;28;20194;-75
2023/05/30 03:59:52;;;;;;;9.88;4.07;;;;;;;;;;5034495;28;20049;-74
2023/05/30 04:02:18;;;;;;;11.23;4.63;;;;;;;;;;5042004;28;20053;-74
2023/05/30 04:04:45;;;;;;;12.82;4.88;;;;;;;;;;5037740;28;20064;-75
2023/05/30 04:07:11;;;;;;;10.18;4.38;;;;;;;;;;5031175;28;20085;-74
2023/05/30 04:09:37;;;;;;;13.50;4.80;;;;;;;;;;5018627;28;20388;-75
2023/05/30 04:12:03;;;;;;;10.30;4.30;;;;;;;;;;5036290;28;20095;-75
2023/05/30 04:14:29;;;;;;;12.70;4.75;;;;;;;;;;5036606;28;20111;-74
2023/05/30 04:16:55;;;;;;;10.77;4.35;;;;;;;;;;5018302;28;20422;-75
2023/05/30 04:19:21;;;;;;;6.45;3.85;;;;;;;;;;5016579;28;20483;-74
2023/05/30 04:21:47;;;;;;;9.98;4.13;;;;;;;;;;5034504;28;20056;-75
2023/05/30 04:24:14;;;;;;;8.93;3.78;;;;;;;;;;5048110;28;20045;-75
2023/05/30 04:26:40;;;;;;;10.57;3.88;;;;;;;;;;5039029;28;20364;-75
2023/05/30 04:29:08;;;;;;;7.20;3.50;;;;;;;;;;5035756;28;20057;-75
2023/05/30 04:31:34;;;;;;;9.57;4.13;;;;;;;;;;5049159;28;20079;-75
2023/05/30 04:34:00;;;;;;;7.25;3.45;;;;;;;;;;5048868;28;20403;-74
2023/05/30 04:36:27;;;;;;;9.25;3.40;;;;;;;;;;5056722;28;20091;-75
2023/05/30 04:38:53;;;;;;;10.27;3.28;;;;;;;;;;5040175;28;20050;-75
2023/05/30 04:41:24;;;;;;;6.70;3.30;;;;;;;;;;5035049;28;20124;-75
2023/05/30 04:43:57;;;;;;;8.38;3.17;;;;;;;;;;5024369;28;20053;-74
2023/05/30 04:46:27;;;;;;;6.53;3.40;;;;;;;;;;5031399;28;20120;-74
2023/05/30 04:48:55;;;;;;;7.13;3.10;;;;;;;;;;5026668;28;20522;-74
2023/05/30 04:51:21;;;;;;;7.80;3.53;;;;;;;;;;5017632;28;20050;-75
2023/05/30 04:53:48;;;;;;;6.15;3.20;;;;;;;;;;5037102;28;20045;-75
2023/05/30 04:56:14;;;;;;;10.32;3.65;;;;;;;;;;5042136;28;20483;-74
2023/05/30 04:58:40;;;;;;;7.10;3.40;;;;;;;;;;5035910;28;20080;-75
2023/05/30 05:01:09;;;;;;;5.60;3.13;;;;;;;;;;5029722;28;20116;-74
2023/05/30 05:03:36;;;;;;;11.88;3.45;;;;;;;;;;5023744;28;20045;-75
2023/05/30 05:06:02;;;;;;;8.90;3.65;;;;;;;;;;5029655;28;20414;-75
2023/05/30 05:08:29;;;;;;;10.27;3.45;;;;;;;;;;5014873;28;20049;-74
2023/05/30 05:10:55;;;;;;;6.95;3.28;;;;;;;;;;5015749;28;20117;-74
2023/05/30 05:13:21;;;;;;;9.55;4.10;;;;;;;;;;5016308;28;20057;-74
2023/05/30 05:15:47;;;;;;;9.05;3.97;;;;;;;;;;5031622;28;20045;-74
2023/05/30 05:18:14;;;;;;;7.13;3.50;;;;;;;;;;5029509;28;20072;-74
2023/05/30 05:20:40;;;;;;;7.05;3.38;;;;;;;;;;5019523;28;20439;-74
2023/05/30 05:23:07;;;;;;;7.15;4.07;;;;;;;;;;5033661;28;20120;-74
2023/05/30 05:25:33;;;;;;;9.25;3.78;;;;;;;;;;5035399;28;20131;-74
2023/05/30 05:27:59;;;;;;;7.07;3.60;;;;;;;;;;5029329;28;20580;-74
2023/05/30 05:30:25;;;;;;;9.93;3.42;;;;;;;;;;5039847;28;20090;-74
2023/05/30 05:32:52;;;;;;;8.02;3.80;;;;;;;;;;5028604;28;20064;-74
2023/05/30 05:35:18;;;;;;;8.70;3.40;;;;;;;;;;5035389;28;20127;-74
2023/05/30 05:37:44;;;;;;;9.85;3.22;;;;;;;;;;5015756;28;20057;-74
2023/05/30 05:40:10;;;;;;;9.23;4.03;;;;;;;;;;5037745;28;20038;-74
2023/05/30 05:42:36;;;;;;;7.03;3.65;;;;;;;;;;5024589;28;20045;-74
2023/05/30 05:45:03;;;;;;;8.65;2.92;;;;;;;;;;5031115;28;20095;-74
2023/05/30 05:47:30;;;;;;;7.82;2.70;;;;;;;;;;5022892;28;20471;-74
2023/05/30 05:49:56;;;;;;;6.10;3.08;;;;;;;;;;5042503;28;20053;-75
2023/05/30 05:52:22;;;;;;;7.78;3.35;;;;;;;;;;5053362;28;20486;-75
2023/05/30 05:54:48;;;;;;;4.93;2.80;;;;;;;;;;5055001;28;20356;-74
2023/05/30 05:57:14;;;;;;;9.25;3.33;;;;;;;;;;5053337;28;20432;-74
2023/05/30 05:59:40;;;;;;;7.63;3.78;;;;;;;;;;5020025;28;20424;-74
2023/05/30 06:02:06;;;;;;;5.78;3.45;;;;;;;;;;5024445;28;20045;-74
2023/05/30 06:04:33;;;;;;;9.63;3.38;;;;;;;;;;5032775;28;20408;-74
2023/05/30 06:06:59;;;;;;;7.28;3.85;;;;;;;;;;5028048;28;20054;-74
2023/05/30 06:09:31;;;;;;;6.85;3.10;;;;;;;;;;5029701;28;20049;-74
2023/05/30 06:12:00;;;;;;;4.20;2.65;;;;;;;;;;5022962;28;20095;-74
2023/05/30 06:14:26;;;;;;;6.47;2.80;;;;;;;;;;5033404;28;20044;-74
2023/05/30 06:16:53;;;;;;;3.75;2.60;;;;;;;;;;5032786;28;20049;-75
2023/05/30 06:19:19;;;;;;;6.72;2.95;;;;;;;;;;5032044;28;20597;-74
2023/05/30 06:21:45;;;;;;;6.95;2.75;;;;;;;;;;5034318;28;20045;-74
2023/05/30 06:24:11;;;;;;;5.75;2.75;;;;;;;;;;5034436;28;20050;-74
2023/05/30 06:26:37;;;;;;;6.13;2.72;;;;;;;;;;5054415;28;20048;-74
2023/05/30 06:29:03;;;;;;;8.18;3.10;;;;;;;;;;5051830;28;20037;-74
2023/05/30 06:31:29;;;;;;;8.27;3.17;;;;;;;;;;5022305;28;20488;-74
2023/05/30 06:33:55;;;;;;;7.00;3.00;;;;;;;;;;5014185;28;20096;-74
2023/05/30 06:36:21;;;;;;;5.85;2.92;;;;;;;;;;5037289;28;20148;-74
2023/05/30 06:38:47;;;;;;;11.45;3.72;;;;;;;;;;5041246;28;20449;-74
2023/05/30 06:41:13;;;;;;;7.10;3.10;;;;;;;;;;5008599;28;20057;-74
2023/05/30 06:43:40;;;;;;;5.30;2.97;;;;;;;;;;5034009;28;20049;-75
2023/05/30 06:46:06;;;;;;;6.75;2.95;;;;;;;;;;5032343;28;20399;-75
2023/05/30 06:48:32;;;;;;;6.78;3.30;;;;;;;;;;5034068;28;20045;-75
2023/05/30 06:50:58;;;;;;;4.75;2.88;;;;;;;;;;5022247;28;20053;-74
2023/05/30 06:53:25;;;;;;;6.10;2.80;;;;;;;;;;5044499;28;20364;-74
2023/05/30 06:55:51;;;;;;;6.35;2.83;;;;;;;;;;5042856;28;20046;-74
2023/05/30 06:58:18;;;;;;;4.97;2.90;;;;;;;;;;5033355;28;20049;-74
2023/05/30 07:00:44;;;;;;;5.63;2.75;;;;;;;;;;5018370;28;20048;-74
2023/05/30 07:03:10;;;;;;;6.45;3.05;;;;;;;;;;5022765;28;20133;-74
2023/05/30 07:05:37;;;;;;;7.75;3.35;;;;;;;;;;5030337;28;20095;-74
2023/05/30 07:08:03;;;;;;;6.15;2.75;;;;;;;;;;5027120;28;20044;-74
2023/05/30 07:10:29;;;;;;;5.78;3.10;;;;;;;;;;5013448;28;20149;-75
2023/05/30 07:12:55;;;;;;;6.90;3.17;;;;;;;;;;5032397;28;20089;-74
2023/05/30 07:15:21;;;;;;;7.80;3.25;;;;;;;;;;5036122;28;20060;-74
2023/05/30 07:17:47;;;;;;;4.60;2.70;;;;;;;;;;5033093;28;20475;-74
2023/05/30 07:20:14;;;;;;;7.15;2.80;;;;;;;;;;5031960;28;20052;-74
2023/05/30 07:22:40;;;;;;;6.22;2.50;;;;;;;;;;5032646;28;20053;-75
2023/05/30 07:25:06;;;;;;;3.53;2.20;;;;;;;;;;5029482;28;20040;-74
2023/05/30 07:27:32;;;;;;;3.50;1.98;;;;;;;;;;5026649;28;20042;-74
2023/05/30 07:29:58;;;;;;;4.20;2.10;;;;;;;;;;5032629;28;20046;-74
2023/05/30 07:32:25;;;;;;;3.65;1.77;;;;;;;;;;5032638;28;20491;-74
2023/05/30 07:34:51;;;;;;;2.88;1.60;;;;;;;;;;5028711;28;20121;-74
2023/05/30 07:37:17;;;;;;;3.08;1.80;;;;;;;;;;5017044;28;20073;-74
2023/05/30 07:39:43;;;;;;;3.85;1.35;;;;;;;;;;5023996;28;20526;-74
2023/05/30 07:42:09;;;;;;;2.33;1.30;;;;;;;;;;5018618;28;20041;-74
2023/05/30 07:44:35;;;;;;;1.83;1.42;;;;;;;;;;5032856;28;20061;-74
2023/05/30 07:47:02;;;;;;;1.95;1.23;;;;;;;;;;5031378;28;20045;-74
2023/05/30 07:49:29;;;;;;;1.52;1.20;;;;;;;;;;5043699;28;20106;-74
2023/05/30 07:51:55;;;;;;;1.58;1.20;;;;;;;;;;5052853;28;20049;-74
2023/05/30 07:54:21;;;;;;;2.80;1.60;;;;;;;;;;5052622;28;20053;-74
2023/05/30 07:56:47;;;;;;;1.45;1.30;;;;;;;;;;5012879;28;20046;-74
2023/05/30 07:59:13;;;;;;;1.55;1.30;;;;;;;;;;5016321;28;20048;-74
2023/05/30 08:01:39;;;;;;;0.82;0.82;;;;;;;;;;5031376;28;20045;-74
2023/05/30 08:04:05;;;;;;;2.13;1.35;;;;;;;;;;5022899;28;20053;-74
2023/05/30 08:06:31;;;;;;;1.55;1.08;;;;;;;;;;5015665;28;20064;-74
2023/05/30 08:08:57;;;;;;;2.35;1.30;;;;;;;;;;5020155;28;20194;-74
2023/05/30 08:11:23;;;;;;;3.72;1.95;;;;;;;;;;5047684;28;20057;-75
2023/05/30 08:13:49;;;;;;;2.25;1.55;;;;;;;;;;5036926;28;20056;-74
2023/05/30 08:16:16;;;;;;;2.00;1.42;;;;;;;;;;5026093;28;20054;-74
2023/05/30 08:18:42;;;;;;;1.73;1.30;;;;;;;;;;5013930;28;20383;-74
2023/05/30 08:21:09;;;;;;;2.92;1.55;;;;;;;;;;5012923;28;20113;-74
2023/05/30 08:23:36;;;;;;;1.52;1.35;;;;;;;;;;5016028;28;20069;-74
2023/05/30 08:26:03;;;;;;;2.03;1.40;;;;;;;;;;5026240;28;20049;-74
2023/05/30 08:28:29;;;;;;;1.40;1.27;;;;;;;;;;5032644;28;20545;-74
2023/05/30 08:30:55;;;;;;;2.53;1.45;;;;;;;;;;5023609;28;20058;-74
2023/05/30 08:33:22;;;;;;;3.05;1.42;;;;;;;;;;5025141;28;20041;-74
2023/05/30 08:35:48;;;;;;;2.55;1.50;;;;;;;;;;5030637;28;20042;-74
2023/05/30 08:38:14;;;;;;;1.33;1.23;;;;;;;;;;5014996;28;20121;-74
2023/05/30 08:40:44;;;;;;;1.80;1.38;;;;;;;;;;5018720;28;20050;-74
2023/05/30 08:43:10;;;;;;;1.58;1.20;;;;;;;;;;5026316;28;20049;-77
2023/05/30 08:45:36;;;;;;;2.25;1.33;;;;;;;;;;5012577;28;20046;-75
2023/05/30 08:48:02;;;;;;;2.92;1.40;;;;;;;;;;5015666;28;20124;-75
2023/05/30 08:50:31;;;;;;;2.22;1.17;;;;;;;;;;5015830;28;20057;-75
2023/05/30 08:53:03;;;;;;;2.60;1.60;;;;;;;;;;4998936;28;20046;-75
2023/05/30 08:55:35;;;;;;;2.25;1.50;;;;;;;;;;5020589;28;20057;-75
2023/05/30 08:58:04;;;;;;;2.22;1.60;;;;;;;;;;5040143;28;20053;-75
2023/05/30 09:00:33;;;;;;;4.88;1.70;;;;;;;;;;5037920;28;20045;-75
2023/05/30 09:02:59;;;;;;;2.67;1.70;;;;;;;;;;5022818;28;20049;-75
2023/05/30 09:05:26;;;;;;;2.38;1.70;;;;;;;;;;5036296;28;20175;-75
2023/05/30 09:07:57;;;;;;;2.75;1.60;;;;;;;;;;5035651;28;20112;-75
2023/05/30 09:10:23;;;;;;;3.88;1.80;;;;;;;;;;5034950;28;20069;-75
2023/05/30 09:12:49;;;;;;;2.85;1.65;;;;;;;;;;5040947;28;20059;-74
2023/05/30 09:15:16;;;;;;;2.38;1.40;;;;;;;;;;5017451;28;20534;-74
2023/05/30 09:17:42;;;;;;;3.55;1.90;;;;;;;;;;5025347;28;20083;-76
2023/05/30 09:20:09;;;;;;;1.77;1.33;;;;;;;;;;5034877;28;20471;-75
2023/05/30 09:22:35;;;;;;;1.98;1.45;;;;;;;;;;5033449;28;20296;-75
2023/05/30 09:25:02;;;;;;;3.28;1.77;;;;;;;;;;5034095;28;20156;-75
2023/05/30 09:27:29;;;;;;;2.28;1.33;;;;;;;;;;5029094;28;20112;-75
2023/05/30 09:29:58;;;;;;;1.73;1.38;;;;;;;;;;5023126;28;20077;-75
2023/05/30 09:32:34;;;;;;;2.47;1.30;;;;;;;;;;5020856;28;20439;-74
2023/05/30 09:35:03;;;;;;;1.67;1.45;;;;;;;;;;5035309;28;20502;-75
2023/05/30 09:37:36;;;;;;;3.40;1.80;;;;;;;;;;5034810;28;20049;-75
2023/05/30 09:40:15;;;;;;;3.33;1.77;;;;;;;;;;5027625;28;20526;-74
2023/05/30 09:42:45;;;;;;;4.38;1.45;;;;;;;;;;5029754;28;20045;-75
2023/05/30 09:45:13;;;;;;;2.28;1.60;;;;;;;;;;5034220;28;20337;-75
2023/05/30 09:47:42;;;;;;;5.93;1.77;;;;;;;;;;5035107;28;20056;-75
2023/05/30 09:50:09;;;;;;;2.83;1.45;;;;;;;;;;5025906;28;20129;-75
2023/05/30 09:52:35;;;;;;;2.40;1.65;;;;;;;;;;5042903;28;20076;-76
2023/05/30 09:55:05;;;;;;;1.30;1.20;;;;;;;;;;5045288;28;20045;-75
2023/05/30 09:57:32;;;;;;;1.90;1.30;;;;;;;;;;5034208;28;20128;-75
2023/05/30 09:59:58;;;;;;;1.15;1.00;;;;;;;;;;5024750;28;20115;-75
2023/05/30 10:02:24;;;;;;;2.47;1.60;;;;;;;;;;5023366;28;20045;-75
2023/05/30 10:04:53;;;;;;;2.10;1.75;;;;;;;;;;5034032;28;20041;-75
2023/05/30 10:07:20;;;;;;;2.28;1.35;;;;;;;;;;5030921;28;20077;-75
2023/05/30 10:09:49;;;;;;;2.75;1.55;;;;;;;;;;5019918;28;20424;-75
2023/05/30 10:12:15;;;;;;;2.90;1.50;;;;;;;;;;5032600;28;20128;-75
2023/05/30 10:14:42;;;;;;;2.35;1.45;;;;;;;;;;5015347;28;20045;-75
2023/05/30 10:17:09;;;;;;;1.85;1.20;;;;;;;;;;5022853;28;20045;-75
2023/05/30 10:19:53;;;;;;;2.45;1.60;;;;;;;;;;5027363;28;20081;-74
2023/05/30 10:22:21;;;;;;;1.80;1.50;;;;;;;;;;5014688;28;20046;-75
2023/05/30 10:24:47;;;;;;;2.85;1.67;;;;;;;;;;5028001;28;20057;-75
2023/05/30 10:27:18;;;;;;;3.60;1.60;;;;;;;;;;5033578;28;20467;-75
2023/05/30 10:29:47;;;;;;;1.92;1.48;;;;;;;;;;5019366;28;20049;-74
2023/05/30 10:32:16;;;;;;;3.00;1.70;;;;;;;;;;5034208;28;20041;-74
2023/05/30 10:34:42;;;;;;;2.40;1.63;;;;;;;;;;5032686;28;20059;-74
2023/05/30 10:37:09;;;;;;;1.52;1.40;;;;;;;;;;5031725;28;20049;-75
2023/05/30 10:39:54;;;;;;;2.15;1.60;;;;;;;;;;5013759;28;20111;-75
2023/05/30 10:42:43;;;;;;;2.10;1.40;;;;;;;;;;5036704;28;20116;-75
2023/05/30 10:45:17;;;;;;;2.42;1.38;;;;;;;;;;5030394;28;20081;-75
2023/05/30 10:47:49;;;;;;;2.85;1.60;;;;;;;;;;5031633;28;20064;-76
2023/05/30 10:50:24;;;;;;;2.53;1.50;;;;;;;;;;5047321;28;20125;-75
2023/05/30 10:52:54;;;;;;;1.90;1.20;;;;;;;;;;5034069;28;20127;-75
2023/05/30 10:55:20;;;;;;;1.75;1.60;;;;;;;;;;5040191;28;20518;-74
2023/05/30 10:57:46;;;;;;;2.28;1.55;;;;;;;;;;5031604;28;20129;-75
2023/05/30 11:00:27;;;;;;;6.03;2.20;;;;;;;;;;5027079;28;20122;-75
2023/05/30 11:02:54;;;;;;;3.35;1.90;;;;;;;;;;5026959;28;20497;-75
2023/05/30 11:05:30;;;;;;;2.45;1.77;;;;;;;;;;5013774;28;20123;-75
2023/05/30 11:07:58;;;;;;;2.25;1.90;;;;;;;;;;5028000;28;20136;-75
2023/05/30 11:10:25;;;;;;;2.53;1.80;;;;;;;;;;5028051;28;20092;-75
2023/05/30 11:12:52;;;;;;;4.95;1.83;;;;;;;;;;5022744;28;20077;-75
2023/05/30 11:15:30;;;;;;;3.42;1.90;;;;;;;;;;5040016;28;20052;-75
2023/05/30 11:17:56;;;;;;;1.90;1.50;;;;;;;;;;5024309;28;20170;-75
2023/05/30 11:20:23;;;;;;;2.03;1.73;;;;;;;;;;5033071;28;20422;-75
2023/05/30 11:23:01;;;;;;;3.00;1.80;;;;;;;;;;5032572;28;20049;-75
2023/05/30 11:25:28;;;;;;;3.53;1.90;;;;;;;;;;5033482;28;20086;-75
2023/05/30 11:28:01;;;;;;;2.50;1.80;;;;;;;;;;5032236;28;20052;-75
2023/05/30 11:30:27;;;;;;;2.53;2.00;;;;;;;;;;5033205;28;20132;-75
2023/05/30 11:32:56;;;;;;;3.75;1.80;;;;;;;;;;5033362;28;20076;-75
2023/05/30 11:35:22;;;;;;;2.00;1.73;;;;;;;;;;5019991;28;20080;-75
2023/05/30 11:37:48;;;;;;;3.03;2.08;;;;;;;;;;5033759;28;20072;-75
2023/05/30 11:40:15;;;;;;;3.03;1.92;;;;;;;;;;5033114;28;20100;-75
2023/05/30 11:42:42;;;;;;;2.63;2.00;;;;;;;;;;5035337;28;20071;-75
2023/05/30 11:45:08;;;;;;;4.50;2.60;;;;;;;;;;5039286;28;20090;-75
2023/05/30 11:47:34;;;;;;;2.85;1.90;;;;;;;;;;5021128;28;20046;-75
2023/05/30 11:50:00;;;;;;;3.42;1.83;;;;;;;;;;5033672;28;20045;-75
2023/05/30 11:52:26;;;;;;;3.50;1.85;;;;;;;;;;5040522;28;20451;-75
2023/05/30 11:55:02;;;;;;;3.35;1.90;;;;;;;;;;5034820;28;20052;-75
2023/05/30 11:57:28;;;;;;;4.13;1.90;;;;;;;;;;5044630;28;20042;-75
2023/05/30 11:59:54;;;;;;;3.03;1.80;;;;;;;;;;5032896;28;20125;-75
2023/05/30 12:02:26;;;;;;;2.50;1.77;;;;;;;;;;5025871;28;20129;-75
2023/05/30 12:04:59;;;;;;;3.83;1.75;;;;;;;;;;5035618;28;20399;-75
2023/05/30 12:07:25;;;;;;;1.77;1.60;;;;;;;;;;5033006;28;20447;-75
2023/05/30 12:09:51;;;;;;;3.17;1.67;;;;;;;;;;5033008;28;20054;-75
2023/05/30 12:12:17;;;;;;;1.60;1.33;;;;;;;;;;5012321;28;20173;-75
2023/05/30 12:14:43;;;;;;;2.25;1.60;;;;;;;;;;5026739;28;20129;-75
2023/05/30 12:17:11;;;;;;;2.03;1.50;;;;;;;;;;5031593;28;20068;-75
2023/05/30 12:19:37;;;;;;;1.23;1.08;;;;;;;;;;5035005;28;20452;-74
2023/05/30 12:22:04;;;;;;;2.88;1.55;;;;;;;;;;5017373;28;20049;-75
2023/05/30 12:24:34;;;;;;;1.55;1.45;;;;;;;;;;5034950;28;20084;-74
2023/05/30 12:27:01;;;;;;;1.60;1.40;;;;;;;;;;5037010;28;20103;-75
2023/05/30 12:29:31;;;;;;;1.50;1.40;;;;;;;;;;5036668;28;20420;-75
2023/05/30 12:31:57;;;;;;;1.70;1.50;;;;;;;;;;5036307;28;20037;-75
2023/05/30 12:34:23;;;;;;;1.88;1.50;;;;;;;;;;5033522;28;20499;-75
2023/05/30 12:36:50;;;;;;;1.92;1.45;;;;;;;;;;5039504;28;20041;-75
2023/05/30 12:39:17;;;;;;;1.80;1.60;;;;;;;;;;5030274;28;20046;-77
2023/05/30 12:41:43;;;;;;;2.83;1.60;;;;;;;;;;5029000;28;20476;-75
2023/05/30 12:44:16;;;;;;;1.95;1.50;;;;;;;;;;5030283;28;20087;-75
2023/05/30 12:46:42;;;;;;;3.35;1.73;;;;;;;;;;5033114;28;20117;-75
2023/05/30 12:49:09;;;;;;;2.47;1.60;;;;;;;;;;5034990;28;20053;-75
2023/05/30 12:51:35;;;;;;;2.22;1.70;;;;;;;;;;5033490;28;20041;-74
2023/05/30 12:54:01;;;;;;;1.60;1.50;;;;;;;;;;5034521;28;20037;-74
2023/05/30 12:56:28;;;;;;;2.65;1.80;;;;;;;;;;5028869;28;20042;-75
2023/05/30 12:58:54;;;;;;;2.65;1.80;;;;;;;;;;5017152;28;20060;-75
2023/05/30 13:01:20;;;;;;;2.58;1.75;;;;;;;;;;5026835;28;20077;-75
2023/05/30 13:03:48;;;;;;;3.05;2.10;;;;;;;;;;5041612;28;20062;-75
2023/05/30 13:06:14;;;;;;;5.53;2.30;;;;;;;;;;5039649;28;20487;-75
2023/05/30 13:08:40;;;;;;;3.67;2.20;;;;;;;;;;5035607;28;20099;-75
2023/05/30 13:11:06;;;;;;;2.60;1.95;;;;;;;;;;5033360;28;20057;-75
2023/05/30 13:13:32;;;;;;;3.13;2.13;;;;;;;;;;5025104;28;20113;-75
2023/05/30 13:15:58;;;;;;;2.85;2.30;;;;;;;;;;5026214;28;20041;-75
2023/05/30 13:18:24;;;;;;;4.53;1.95;;;;;;;;;;5031170;28;20045;-75
2023/05/30 13:20:50;;;;;;;5.32;2.00;;;;;;;;;;5034963;28;20399;-75
2023/05/30 13:23:16;;;;;;;1.95;1.65;;;;;;;;;;5027196;28;20423;-74
2023/05/30 13:25:43;;;;;;;3.58;1.98;;;;;;;;;;5032775;28;20049;-75
2023/05/30 13:28:09;;;;;;;3.75;1.95;;;;;;;;;;5034396;28;20046;-75
2023/05/30 13:30:35;;;;;;;3.35;2.00;;;;;;;;;;5040590;28;20083;-75
2023/05/30 13:33:01;;;;;;;2.15;1.50;;;;;;;;;;5032810;28;20053;-75
2023/05/30 13:35:27;;;;;;;2.95;2.20;;;;;;;;;;5033662;28;20045;-75
2023/05/30 13:37:53;;;;;;;2.80;1.90;;;;;;;;;;5033895;28;20130;-74
2023/05/30 13:40:19;;;;;;;3.28;2.20;;;;;;;;;;5027816;28;20038;-74
2023/05/30 13:42:45;;;;;;;3.38;1.90;;;;;;;;;;5034022;28;20103;-75
2023/05/30 13:45:11;;;;;;;4.03;2.30;;;;;;;;;;5022709;28;20517;-75
2023/05/30 13:47:37;;;;;;;3.83;2.00;;;;;;;;;;5022262;28;20041;-74
2023/05/30 13:50:04;;;;;;;3.03;2.10;;;;;;;;;;5033861;28;20042;-75
2023/05/30 13:52:31;;;;;;;2.15;1.90;;;;;;;;;;5015110;28;20042;-74
2023/05/30 13:54:57;;;;;;;3.90;2.10;;;;;;;;;;5029398;28;20060;-74
2023/05/30 13:57:23;;;;;;;2.95;2.15;;;;;;;;;;5035876;28;20033;-75
2023/05/30 13:59:50;;;;;;;2.88;2.10;;;;;;;;;;5037975;28;20456;-75
2023/05/30 14:02:16;;;;;;;3.55;2.00;;;;;;;;;;5030055;28;20041;-75
2023/05/30 14:04:42;;;;;;;2.13;1.90;;;;;;;;;;5040810;28;20459;-75
2023/05/30 14:07:08;;;;;;;3.30;2.00;;;;;;;;;;5035805;28;20045;-75
2023/05/30 14:09:34;;;;;;;2.90;1.90;;;;;;;;;;5036470;28;20087;-75
2023/05/30 14:12:00;;;;;;;2.63;1.80;;;;;;;;;;5045751;28;20060;-75
2023/05/30 14:14:28;;;;;;;3.13;1.85;;;;;;;;;;5033534;28;20466;-75
2023/05/30 14:16:54;;;;;;;2.28;1.65;;;;;;;;;;5025239;28;20420;-75
2023/05/30 14:19:20;;;;;;;3.72;1.95;;;;;;;;;;5031370;28;20052;-75
2023/05/30 14:21:49;;;;;;;3.05;2.00;;;;;;;;;;5022548;28;20051;-75
2023/05/30 14:24:15;;;;;;;3.85;2.53;;;;;;;;;;5039213;28;20048;-75
2023/05/30 14:26:41;;;;;;;3.00;1.90;;;;;;;;;;5025780;28;20046;-75
2023/05/30 14:29:07;;;;;;;3.35;2.10;;;;;;;;;;5036117;28;20051;-75
2023/05/30 14:31:33;;;;;;;3.50;2.40;;;;;;;;;;5034192;28;20038;-75
2023/05/30 14:34:00;;;;;;;2.78;1.60;;;;;;;;;;5012855;28;20050;-75
2023/05/30 14:36:26;;;;;;;3.50;1.80;;;;;;;;;;5032477;28;20055;-75
2023/05/30 14:38:52;;;;;;;2.65;1.95;;;;;;;;;;5034318;28;20049;-75
2023/05/30 14:41:18;;;;;;;3.20;2.00;;;;;;;;;;5034294;28;20048;-80